sensor_id;sensor_type;location;lat;lon;timestamp;pressure;altitude;pressure_sealevel;temperature;humidity
2549;BME280;1284;53.520;10.248;2024-02-15T11:33:35;100815.50;;;15.52;100.00
2549;BME280;1284;53.520;10.248;2024-02-15T11:36:09;100822.50;;;15.56;100.00
2549;BME280;1284;53.520;10.248;2024-02-15T11:38:36;100813.19;;;15.57;100.00
2549;BME280;1284;53.520;10.248;2024-02-15T11:41:05;100813.19;;;15.57;100.00
2549;BME280;1284;53.520;10.248;2024-02-15T11:46:16;100806.47;;;15.37;100.00
2549;BME280;1284;53.520;10.248;2024-02-15T11:48:45;100806.88;;;15.39;100.00
2549;BME280;1284;53.520;10.248;2024-02-15T11:51:25;100812.78;;;15.45;100.00
2549;BME280;1284;53.520;10.248;2024-02-15T11:54:07;100804.22;;;15.46;100.00
2549;BME280;1284;53.520;10.248;2024-02-15T11:56:55;100801.84;;;15.41;100.00
2549;BME280;1284;53.520;10.248;2024-02-15T11:59:41;100799.56;;;15.43;100.00
2549;BME280;1284;53.520;10.248;2024-02-15T12:02:36;100789.09;;;15.42;100.00
2549;BME280;1284;53.520;10.248;2024-02-15T12:05:20;100792.13;;;15.33;100.00
2549;BME280;1284;53.520;10.248;2024-02-15T12:08:05;100788.28;;;15.41;100.00
2549;BME280;1284;53.520;10.248;2024-02-15T12:11:01;100789.78;;;15.31;100.00
2549;BME280;1284;53.520;10.248;2024-02-15T12:13:51;100783.97;;;15.29;100.00
2549;BME280;1284;53.520;10.248;2024-02-15T12:16:35;100784.78;;;15.37;100.00
2549;BME280;1284;53.520;10.248;2024-02-15T12:19:20;100785.16;;;15.28;100.00
2549;BME280;1284;53.520;10.248;2024-02-15T12:21:47;100783.28;;;15.47;100.00
2549;BME280;1284;53.520;10.248;2024-02-15T12:24:13;100779.81;;;15.46;100.00
2549;BME280;1284;53.520;10.248;2024-02-15T12:26:39;100772.75;;;15.31;100.00
2549;BME280;1284;53.520;10.248;2024-02-15T12:29:07;100768.09;;;15.28;100.00
2549;BME280;1284;53.520;10.248;2024-02-15T12:31:35;100770.41;;;15.26;100.00
2549;BME280;1284;53.520;10.248;2024-02-15T12:34:04;100769.28;;;15.34;100.00
2549;BME280;1284;53.520;10.248;2024-02-15T12:36:33;100767.34;;;15.31;100.00
2549;BME280;1284;53.520;10.248;2024-02-15T12:39:06;100765.72;;;15.19;100.00
2549;BME280;1284;53.520;10.248;2024-02-15T12:41:40;100766.53;;;15.27;100.00
2549;BME280;1284;53.520;10.248;2024-02-15T12:44:07;100764.19;;;15.22;100.00
2549;BME280;1284;53.520;10.248;2024-02-15T12:46:36;100764.19;;;15.18;100.00
2549;BME280;1284;53.520;10.248;2024-02-15T12:49:12;100765.75;;;15.23;100.00
2549;BME280;1284;53.520;10.248;2024-02-15T12:51:50;100768.44;;;15.16;100.00
2549;BME280;1284;53.520;10.248;2024-02-15T12:54:20;100766.16;;;15.25;100.00
2549;BME280;1284;53.520;10.248;2024-02-15T12:56:47;100760.69;;;15.18;100.00
2549;BME280;1284;53.520;10.248;2024-02-15T12:59:14;100759.88;;;15.14;100.00
2549;BME280;1284;53.520;10.248;2024-02-15T13:01:40;100761.47;;;15.22;100.00
2549;BME280;1284;53.520;10.248;2024-02-15T13:04:20;100760.34;;;15.30;100.00
2549;BME280;1284;53.520;10.248;2024-02-15T13:06:46;100764.56;;;15.20;100.00
2549;BME280;1284;53.520;10.248;2024-02-15T13:09:11;100766.50;;;15.20;100.00
2549;BME280;1284;53.520;10.248;2024-02-15T13:11:38;100755.66;;;15.16;100.00
2549;BME280;1284;53.520;10.248;2024-02-15T13:14:03;100753.31;;;15.18;100.00
2549;BME280;1284;53.520;10.248;2024-02-15T13:16:30;100754.16;;;15.36;100.00
2549;BME280;1284;53.520;10.248;2024-02-15T13:18:56;100752.59;;;15.32;100.00
2549;BME280;1284;53.520;10.248;2024-02-15T13:21:24;100745.63;;;15.31;100.00
2549;BME280;1284;53.520;10.248;2024-02-15T13:23:55;100749.09;;;15.28;100.00
2549;BME280;1284;53.520;10.248;2024-02-15T13:26:20;100744.06;;;15.30;100.00
2549;BME280;1284;53.520;10.248;2024-02-15T13:28:48;100743.28;;;15.26;100.00
2549;BME280;1284;53.520;10.248;2024-02-15T13:31:14;100750.28;;;15.34;100.00
2549;BME280;1284;53.520;10.248;2024-02-15T13:33:40;100740.94;;;15.28;100.00
2549;BME280;1284;53.520;10.248;2024-02-15T13:36:06;100748.69;;;15.33;100.00
2549;BME280;1284;53.520;10.248;2024-02-15T13:38:36;100741.72;;;15.28;100.00
2549;BME280;1284;53.520;10.248;2024-02-15T13:41:03;100742.47;;;15.22;100.00
2549;BME280;1284;53.520;10.248;2024-02-15T13:43:29;100740.94;;;15.21;100.00
2549;BME280;1284;53.520;10.248;2024-02-15T13:45:54;100743.66;;;15.21;100.00
2549;BME280;1284;53.520;10.248;2024-02-15T13:48:20;100741.28;;;15.16;100.00
2549;BME280;1284;53.520;10.248;2024-02-15T13:50:45;100727.31;;;15.07;100.00
2549;BME280;1284;53.520;10.248;2024-02-15T13:53:11;100733.88;;;15.02;100.00
2549;BME280;1284;53.520;10.248;2024-02-15T13:55:38;100726.53;;;15.03;100.00
2549;BME280;1284;53.520;10.248;2024-02-15T13:58:05;100731.22;;;15.16;100.00
2549;BME280;1284;53.520;10.248;2024-02-15T14:00:33;100726.91;;;15.01;100.00
2549;BME280;1284;53.520;10.248;2024-02-15T14:03:02;100724.22;;;15.05;100.00
2549;BME280;1284;53.520;10.248;2024-02-15T14:05:31;100722.28;;;15.02;100.00
2549;BME280;1284;53.520;10.248;2024-02-15T14:07:59;100721.84;;;14.93;100.00
2549;BME280;1284;53.520;10.248;2024-02-15T14:10:28;100721.88;;;15.00;100.00
2549;BME280;1284;53.520;10.248;2024-02-15T14:12:54;100726.53;;;15.03;100.00
2549;BME280;1284;53.520;10.248;2024-02-15T14:15:21;100721.50;;;15.08;100.00
2549;BME280;1284;53.520;10.248;2024-02-15T14:17:47;100728.47;;;15.02;100.00
2549;BME280;1284;53.520;10.248;2024-02-15T14:20:13;100722.25;;;14.98;100.00
2549;BME280;1284;53.520;10.248;2024-02-15T14:22:40;100725.78;;;15.09;100.00
2549;BME280;1284;53.520;10.248;2024-02-15T14:25:06;100719.97;;;15.14;100.00
2549;BME280;1284;53.520;10.248;2024-02-15T14:27:32;100722.28;;;15.02;100.00
2549;BME280;1284;53.520;10.248;2024-02-15T14:29:58;100721.50;;;15.12;100.00
2549;BME280;1284;53.520;10.248;2024-02-15T14:32:42;100717.66;;;15.13;100.00
2549;BME280;1284;53.520;10.248;2024-02-15T14:35:32;100720.38;;;15.13;100.00
2549;BME280;1284;53.520;10.248;2024-02-15T14:38:05;100723.09;;;15.13;100.00
2549;BME280;1284;53.520;10.248;2024-02-15T14:40:36;100721.09;;;15.03;100.00
2549;BME280;1284;53.520;10.248;2024-02-15T14:43:20;100716.09;;;15.12;100.00
2549;BME280;1284;53.520;10.248;2024-02-15T14:45:47;100715.69;;;15.06;100.00
2549;BME280;1284;53.520;10.248;2024-02-15T14:48:17;100715.34;;;15.18;100.00
2549;BME280;1284;53.520;10.248;2024-02-15T14:50:46;100711.84;;;15.11;100.00
2549;BME280;1284;53.520;10.248;2024-02-15T14:53:28;100714.94;;;15.16;100.00
2549;BME280;1284;53.520;10.248;2024-02-15T14:55:57;100720.38;;;15.13;100.00
2549;BME280;1284;53.520;10.248;2024-02-15T14:58:28;100716.09;;;15.12;100.00
2549;BME280;1284;53.520;10.248;2024-02-15T15:00:54;100710.66;;;15.01;100.00
2549;BME280;1284;53.520;10.248;2024-02-15T15:03:23;100718.84;;;15.15;100.00
2549;BME280;1284;53.520;10.248;2024-02-15T15:05:48;100708.34;;;15.14;100.00
2549;BME280;1284;53.520;10.248;2024-02-15T15:08:32;100708.38;;;15.24;100.00
2549;BME280;1284;53.520;10.248;2024-02-15T19:56:22;100693.13;;;14.81;100.00
2549;BME280;1284;53.520;10.248;2024-02-15T19:59:45;100684.25;;;14.88;100.00
2549;BME280;1284;53.520;10.248;2024-02-15T20:08:46;100677.25;;;14.83;100.00
2549;BME280;1284;53.520;10.248;2024-02-15T20:14:32;100671.88;;;14.94;100.00
2549;BME280;1284;53.520;10.248;2024-02-15T20:18:15;100676.53;;;14.90;100.00
2549;BME280;1284;53.520;10.248;2024-02-15T20:21:47;100660.59;;;14.74;100.00
2549;BME280;1284;53.520;10.248;2024-02-15T20:25:14;100666.78;;;14.75;100.00
2549;BME280;1284;53.520;10.248;2024-02-15T20:35:36;100659.78;;;14.70;100.00
2549;BME280;1284;53.520;10.248;2024-02-15T20:42:47;100671.84;;;14.83;100.00
2549;BME280;1284;53.520;10.248;2024-02-15T20:45:39;100681.53;;;14.84;100.00
2549;BME280;1284;53.520;10.248;2024-02-15T20:48:36;100681.13;;;14.79;100.00
2549;BME280;1284;53.520;10.248;2024-02-15T20:51:52;100687.69;;;14.74;100.00
2549;BME280;1284;53.520;10.248;2024-02-15T20:54:48;100685.38;;;14.73;100.00
2549;BME280;1284;53.520;10.248;2024-02-15T21:05:48;100683.44;;;14.77;100.00
